createdAt,value
2019-02-07T00:02:42.679Z,-4.23
2019-02-07T00:07:46.182Z,-4.41
2019-02-07T00:12:49.601Z,-4.37
2019-02-07T00:17:53.163Z,-4.66
2019-02-07T00:22:56.567Z,-4.86
2019-02-07T00:27:59.970Z,-4.84
2019-02-07T00:33:03.588Z,-5.07
2019-02-07T00:38:07.083Z,-5.17
2019-02-07T00:43:10.505Z,-5.08
2019-02-07T00:48:14.160Z,-5.23
2019-02-07T00:53:17.552Z,-5.03
2019-02-07T00:58:21.068Z,-4.77
2019-02-07T01:03:24.604Z,-4.97
2019-02-07T01:08:28.012Z,-5.21
2019-02-07T01:13:31.480Z,-4.89
2019-02-07T01:18:35.415Z,-4.83
2019-02-07T01:23:38.813Z,-4.93
2019-02-07T01:28:42.310Z,-4.86
2019-02-07T01:33:45.911Z,-4.91
2019-02-07T01:38:49.319Z,-5.07
2019-02-07T01:43:52.743Z,-5.03
2019-02-07T01:48:56.315Z,-5.03
2019-02-07T01:53:59.690Z,-5.11
2019-02-07T01:59:03.205Z,-4.95
2019-02-07T02:04:06.613Z,-4.89
2019-02-07T02:09:10.088Z,-5.11
2019-02-07T02:14:13.588Z,-5.14
2019-02-07T02:19:17.013Z,-5.48
2019-02-07T02:24:20.587Z,-5.44
2019-02-07T02:29:24.850Z,-5.37
2019-02-07T02:34:28.349Z,-5.40
2019-02-07T02:39:31.911Z,-5.44
2019-02-07T02:44:35.324Z,-5.57
2019-02-07T02:49:42.282Z,-5.47
2019-02-07T02:54:49.105Z,-5.35
2019-02-07T02:59:52.676Z,-5.47
2019-02-07T03:05:01.597Z,-5.49
2019-02-07T03:10:09.607Z,-5.70
2019-02-07T03:15:18.165Z,-5.61
2019-02-07T03:20:27.163Z,-5.73
2019-02-07T03:25:35.598Z,-5.79
2019-02-07T03:30:44.165Z,-5.85
2019-02-07T03:37:56.723Z,-5.71
2019-02-07T03:43:05.492Z,-5.59
2019-02-07T03:48:13.946Z,-5.78
2019-02-07T03:53:21.557Z,-5.76
2019-02-07T03:58:31.170Z,-5.79
2019-02-07T04:03:39.878Z,-5.87
2019-02-07T04:08:49.478Z,-5.79
2019-02-07T04:14:05.019Z,-5.80
2019-02-07T04:21:18.796Z,-5.86
2019-02-07T04:26:27.362Z,-5.96
2019-02-07T04:32:06.142Z,-6.13
2019-02-07T04:37:15.721Z,-6.14
2019-02-07T04:42:28.277Z,-6.16
2019-02-07T04:48:09.752Z,-6.16
2019-02-07T04:53:24.423Z,-6.46
2019-02-07T04:58:49.101Z,-6.38
2019-02-07T05:03:57.768Z,-6.50
2019-02-07T05:09:10.461Z,-6.65
2019-02-07T05:14:20.075Z,-6.65
2019-02-07T05:19:28.661Z,-6.66
2019-02-07T05:24:50.131Z,-6.62
2019-02-07T05:29:57.957Z,-6.49
2019-02-07T05:35:11.579Z,-6.48
2019-02-07T05:40:22.308Z,-6.43
2019-02-07T05:45:37.083Z,-6.44
2019-02-07T05:50:44.605Z,-6.49
2019-02-07T05:57:56.624Z,-6.40
2019-02-07T06:03:12.202Z,-6.38
2019-02-07T06:08:22.888Z,-6.42
2019-02-07T06:13:30.666Z,-6.32
2019-02-07T06:18:39.367Z,-6.38
2019-02-07T06:23:48.150Z,-6.23
2019-02-07T06:29:01.884Z,-6.26
2019-02-07T06:34:10.806Z,-6.33
2019-02-07T06:39:24.540Z,-6.27
2019-02-07T06:44:35.229Z,-6.26
2019-02-07T06:49:48.950Z,-6.37
2019-02-07T06:55:13.453Z,-6.36
2019-02-07T07:00:21.400Z,-6.38
2019-02-07T07:05:30.459Z,-6.35
2019-02-07T07:10:39.296Z,-6.23
2019-02-07T07:15:53.556Z,-6.25
2019-02-07T07:21:02.887Z,-6.11
2019-02-07T07:28:14.268Z,-5.96
2019-02-07T07:33:54.919Z,-6.03
2019-02-07T07:41:05.133Z,-5.94
2019-02-07T07:46:48.999Z,-5.88
2019-02-07T07:54:01.269Z,-5.77
2019-02-07T07:59:10.494Z,-5.92
2019-02-07T08:04:19.499Z,-5.95
2019-02-07T08:09:28.199Z,-6.17
2019-02-07T08:14:35.846Z,-6.23
2019-02-07T08:19:44.472Z,-6.27
2019-02-07T08:24:52.185Z,-6.12
2019-02-07T08:30:07.220Z,-6.04
2019-02-07T08:35:25.216Z,-6.11
2019-02-07T08:41:37.414Z,-6.10
2019-02-07T08:47:18.806Z,-5.91
2019-02-07T08:52:30.902Z,-6.11
2019-02-07T08:57:39.524Z,-6.07
2019-02-07T09:02:51.705Z,-6.03
2019-02-07T09:08:12.550Z,-6.14
2019-02-07T09:13:21.819Z,-6.01
2019-02-07T09:20:34.755Z,-6.06
2019-02-07T09:25:44.074Z,-5.83
2019-02-07T09:31:57.283Z,-5.75
2019-02-07T09:37:08.149Z,-5.68
2019-02-07T09:42:30.909Z,-5.65
2019-02-07T09:47:38.614Z,-5.66
2019-02-07T09:53:03.515Z,-5.69
2019-02-07T09:58:18.431Z,-5.50
2019-02-07T10:03:42.514Z,-5.56
2019-02-07T10:08:53.062Z,-5.39
2019-02-07T10:14:01.704Z,-5.57
2019-02-07T10:19:10.635Z,-5.71
2019-02-07T10:26:25.339Z,-5.66
2019-02-07T10:31:34.228Z,-5.32
2019-02-07T10:37:18.972Z,-5.37
2019-02-07T10:44:33.909Z,-5.23
2019-02-07T10:49:42.429Z,-5.07
2019-02-07T10:56:51.985Z,-5.27
2019-02-07T11:02:00.667Z,-5.30
2019-02-07T11:09:12.420Z,-5.11
2019-02-07T11:14:20.993Z,-5.03
2019-02-07T11:19:34.689Z,-4.94
2019-02-07T11:24:43.288Z,-4.90
2019-02-07T11:30:07.717Z,-4.73
2019-02-07T11:37:17.544Z,-4.66
2019-02-07T11:42:58.971Z,-4.81
2019-02-07T11:48:07.869Z,-4.77
2019-02-07T11:53:20.339Z,-4.76
2019-02-07T11:58:32.080Z,-4.79
2019-02-07T12:03:45.476Z,-4.49
2019-02-07T12:08:53.186Z,-4.64
2019-02-07T12:16:04.784Z,-4.43
2019-02-07T12:21:16.448Z,-4.15
2019-02-07T12:26:32.990Z,-4.14
2019-02-07T12:31:41.895Z,-4.42
2019-02-07T12:36:50.659Z,-4.18
2019-02-07T12:41:59.311Z,-4.16
2019-02-07T12:47:08.761Z,-4.09
2019-02-07T12:52:18.312Z,-4.02
2019-02-07T12:59:32.571Z,-3.84
2019-02-07T13:04:52.084Z,-3.86
2019-02-07T13:09:59.791Z,-3.87
2019-02-07T13:15:08.291Z,-3.81
2019-02-07T13:20:17.297Z,-3.73
2019-02-07T13:25:25.936Z,-3.71
2019-02-07T13:30:36.947Z,-3.43
2019-02-07T13:35:51.451Z,-3.54
2019-02-07T13:41:06.842Z,-3.38
2019-02-07T13:46:16.778Z,-3.25
2019-02-07T13:51:27.598Z,-3.40
2019-02-07T13:56:36.426Z,-3.42
2019-02-07T14:03:52.176Z,-3.47
2019-02-07T14:09:00.963Z,-3.16
2019-02-07T14:14:09.754Z,-3.11
2019-02-07T14:19:18.521Z,-2.98
2019-02-07T14:24:28.251Z,-3.03
2019-02-07T14:29:40.795Z,-3.07
2019-02-07T14:35:23.353Z,-3.03
2019-02-07T14:40:31.939Z,-2.95
2019-02-07T14:45:46.440Z,-2.96
2019-02-07T14:50:50.504Z,-2.86
2019-02-07T14:55:54.110Z,-2.91
2019-02-07T15:00:57.642Z,-2.94
2019-02-07T15:06:01.183Z,-2.86
2019-02-07T15:11:05.133Z,-2.87
2019-02-07T15:16:08.697Z,-2.78
2019-02-07T15:21:12.515Z,-2.82
2019-02-07T15:26:16.191Z,-2.84
2019-02-07T15:31:19.924Z,-2.67
2019-02-07T15:36:23.593Z,-2.62
2019-02-07T15:41:27.225Z,-2.61
2019-02-07T15:46:30.831Z,-2.62
2019-02-07T15:51:34.448Z,-2.65
2019-02-07T15:56:38.047Z,-2.60
2019-02-07T16:01:49.765Z,-2.56
2019-02-07T16:06:53.447Z,-2.56
2019-02-07T16:11:57.055Z,-2.47
2019-02-07T16:17:00.609Z,-2.47
2019-02-07T16:22:04.196Z,-2.31
2019-02-07T16:27:07.928Z,-2.37
2019-02-07T16:32:11.600Z,-2.29
2019-02-07T16:37:15.131Z,-2.21
2019-02-07T16:42:18.779Z,-2.28
2019-02-07T16:47:22.345Z,-2.21
2019-02-07T16:52:26.048Z,-2.15
2019-02-07T16:57:29.680Z,-2.13
2019-02-07T17:02:33.333Z,-2.10
2019-02-07T17:07:38.015Z,-2.10
2019-02-07T17:12:41.632Z,-2.11
2019-02-07T17:17:45.369Z,-2.09
2019-02-07T17:22:50.060Z,-2.03
2019-02-07T17:27:54.724Z,-1.94
2019-02-07T17:32:58.614Z,-1.96
2019-02-07T17:38:02.343Z,-1.93
2019-02-07T17:43:06.349Z,-1.83
2019-02-07T17:48:10.119Z,-1.81
2019-02-07T17:53:13.788Z,-1.82
2019-02-07T17:58:17.627Z,-1.79
2019-02-07T18:03:21.179Z,-1.75
2019-02-07T18:08:24.956Z,-1.75
2019-02-07T18:13:28.711Z,-1.75
2019-02-07T18:18:32.295Z,-1.71
2019-02-07T18:23:35.852Z,-1.69
2019-02-07T18:28:39.766Z,-1.65
2019-02-07T18:33:43.685Z,-1.58
2019-02-07T18:38:47.552Z,-1.54
2019-02-07T18:43:52.358Z,-1.50
2019-02-07T18:48:56.261Z,-1.47
2019-02-07T18:53:59.980Z,-1.39
2019-02-07T18:59:03.666Z,-1.37
2019-02-07T19:04:07.262Z,-1.32
2019-02-07T19:09:10.881Z,-1.27
2019-02-07T19:14:14.556Z,-1.27
2019-02-07T19:19:18.129Z,-1.23
2019-02-07T19:24:21.709Z,-1.21
2019-02-07T19:29:25.574Z,-1.17
2019-02-07T19:34:29.545Z,-1.14
2019-02-07T19:39:33.288Z,-1.12
2019-02-07T19:44:37.524Z,-1.10
2019-02-07T19:49:41.099Z,-1.06
2019-02-07T19:54:44.676Z,-1.01
2019-02-07T19:59:48.728Z,-0.98
2019-02-07T20:04:52.625Z,-0.95
2019-02-07T20:09:56.571Z,-0.93
2019-02-07T20:15:00.207Z,-0.90
2019-02-07T20:20:05.071Z,-0.90
2019-02-07T20:25:09.657Z,-0.90
2019-02-07T20:30:19.407Z,-0.87
2019-02-07T20:35:23.540Z,-0.86
2019-02-07T20:40:27.466Z,-0.85
2019-02-07T20:45:31.420Z,-0.88
2019-02-07T20:50:35.371Z,-0.86
2019-02-07T20:55:39.590Z,-0.85
2019-02-07T21:00:43.567Z,-0.84
2019-02-07T21:05:47.666Z,-0.82
2019-02-07T21:10:51.426Z,-0.81
2019-02-07T21:15:55.368Z,-0.79
2019-02-07T21:20:59.477Z,-0.77
2019-02-07T21:26:03.013Z,-0.76
2019-02-07T21:31:06.835Z,-0.75
2019-02-07T21:36:10.980Z,-0.72
2019-02-07T21:41:14.758Z,-0.71
2019-02-07T21:46:18.348Z,-0.70
2019-02-07T21:51:22.135Z,-0.68
2019-02-07T21:56:25.960Z,-0.65
2019-02-07T22:01:29.673Z,-0.62
2019-02-07T22:06:33.202Z,-0.60
2019-02-07T22:11:37.058Z,-0.58
2019-02-07T22:16:40.637Z,-0.59
2019-02-07T22:21:44.357Z,-0.55
2019-02-07T22:26:48.066Z,-0.53
2019-02-07T22:31:52.125Z,-0.54
2019-02-07T22:36:56.153Z,-0.51
2019-02-07T22:42:00.068Z,-0.49
2019-02-07T22:47:03.606Z,-0.48
2019-02-07T22:52:07.312Z,-0.51
2019-02-07T22:57:10.756Z,-0.46
2019-02-07T23:02:14.748Z,-0.44
2019-02-07T23:07:18.361Z,-0.42
2019-02-07T23:12:21.878Z,-0.44
2019-02-07T23:17:25.552Z,-0.42
2019-02-07T23:22:28.998Z,-0.37
2019-02-07T23:27:32.509Z,-0.34
2019-02-07T23:32:35.925Z,-0.35
2019-02-07T23:37:39.316Z,-0.34
2019-02-07T23:42:42.839Z,-0.34
2019-02-07T23:47:46.276Z,-0.32
2019-02-07T23:52:49.691Z,-0.33
2019-02-07T23:57:53.149Z,-0.33
